sensor_id;sensor_type;location;lat;lon;timestamp;P1;durP1;ratioP1;P2;durP2;ratioP2
43014;SDS011;28637;50.554;7.032;2023-08-06T00:01:24;2.10;;;1.40;;
43014;SDS011;28637;50.554;7.032;2023-08-06T00:06:25;2.78;;;1.40;;
43014;SDS011;28637;50.554;7.032;2023-08-06T00:11:26;3.93;;;1.53;;
43014;SDS011;28637;50.554;7.032;2023-08-06T00:16:26;3.57;;;1.40;;
43014;SDS011;28637;50.554;7.032;2023-08-06T00:21:27;2.77;;;1.40;;
43014;SDS011;28637;50.554;7.032;2023-08-06T00:26:28;1.40;;;1.20;;
43014;SDS011;28637;50.554;7.032;2023-08-06T00:31:29;1.47;;;1.30;;
43014;SDS011;28637;50.554;7.032;2023-08-06T00:36:29;1.50;;;1.20;;
43014;SDS011;28637;50.554;7.032;2023-08-06T00:41:30;2.00;;;1.00;;
43014;SDS011;28637;50.554;7.032;2023-08-06T00:46:31;1.20;;;1.00;;
43014;SDS011;28637;50.554;7.032;2023-08-06T00:51:33;2.13;;;1.23;;
43014;SDS011;28637;50.554;7.032;2023-08-06T00:56:35;5.20;;;1.17;;
43014;SDS011;28637;50.554;7.032;2023-08-06T01:01:36;3.25;;;1.17;;
43014;SDS011;28637;50.554;7.032;2023-08-06T01:12:26;3.65;;;1.20;;
43014;SDS011;28637;50.554;7.032;2023-08-06T01:17:44;2.25;;;1.35;;
43014;SDS011;28637;50.554;7.032;2023-08-06T01:22:45;2.95;;;1.35;;
43014;SDS011;28637;50.554;7.032;2023-08-06T01:27:48;1.80;;;1.20;;
43014;SDS011;28637;50.554;7.032;2023-08-06T01:32:50;3.50;;;1.30;;
43014;SDS011;28637;50.554;7.032;2023-08-06T01:37:53;1.95;;;1.27;;
43014;SDS011;28637;50.554;7.032;2023-08-06T01:42:56;2.97;;;1.30;;
43014;SDS011;28637;50.554;7.032;2023-08-06T01:47:56;3.87;;;1.30;;
43014;SDS011;28637;50.554;7.032;2023-08-06T01:52:57;1.53;;;1.20;;
43014;SDS011;28637;50.554;7.032;2023-08-06T01:57:58;3.57;;;1.30;;
43014;SDS011;28637;50.554;7.032;2023-08-06T02:02:59;3.30;;;1.33;;
43014;SDS011;28637;50.554;7.032;2023-08-06T02:07:59;2.30;;;1.50;;
43014;SDS011;28637;50.554;7.032;2023-08-06T02:13:00;2.63;;;1.40;;
43014;SDS011;28637;50.554;7.032;2023-08-06T02:18:01;3.43;;;1.10;;
43014;SDS011;28637;50.554;7.032;2023-08-06T02:23:02;4.93;;;1.30;;
43014;SDS011;28637;50.554;7.032;2023-08-06T02:28:02;2.93;;;1.20;;
43014;SDS011;28637;50.554;7.032;2023-08-06T02:33:03;1.60;;;1.17;;
43014;SDS011;28637;50.554;7.032;2023-08-06T02:38:04;5.73;;;1.40;;
43014;SDS011;28637;50.554;7.032;2023-08-06T02:43:04;1.77;;;1.30;;
43014;SDS011;28637;50.554;7.032;2023-08-06T02:48:05;2.80;;;1.13;;
43014;SDS011;28637;50.554;7.032;2023-08-06T02:53:06;3.30;;;1.00;;
43014;SDS011;28637;50.554;7.032;2023-08-06T02:58:07;2.45;;;1.10;;
43014;SDS011;28637;50.554;7.032;2023-08-06T03:03:08;1.80;;;1.20;;
43014;SDS011;28637;50.554;7.032;2023-08-06T03:08:09;1.83;;;1.10;;
43014;SDS011;28637;50.554;7.032;2023-08-06T03:13:10;2.10;;;1.07;;
43014;SDS011;28637;50.554;7.032;2023-08-06T03:18:10;4.37;;;1.10;;
43014;SDS011;28637;50.554;7.032;2023-08-06T03:23:11;1.67;;;0.63;;
43014;SDS011;28637;50.554;7.032;2023-08-06T03:28:12;1.47;;;1.07;;
43014;SDS011;28637;50.554;7.032;2023-08-06T03:33:12;2.17;;;0.80;;
43014;SDS011;28637;50.554;7.032;2023-08-06T03:38:13;2.53;;;0.93;;
43014;SDS011;28637;50.554;7.032;2023-08-06T03:43:14;1.40;;;0.77;;
43014;SDS011;28637;50.554;7.032;2023-08-06T03:48:15;2.97;;;1.00;;
43014;SDS011;28637;50.554;7.032;2023-08-06T03:53:16;1.80;;;0.60;;
43014;SDS011;28637;50.554;7.032;2023-08-06T03:58:17;3.07;;;0.80;;
43014;SDS011;28637;50.554;7.032;2023-08-06T04:03:17;0.57;;;0.50;;
43014;SDS011;28637;50.554;7.032;2023-08-06T04:08:18;0.70;;;0.50;;
43014;SDS011;28637;50.554;7.032;2023-08-06T04:13:19;0.80;;;0.40;;
43014;SDS011;28637;50.554;7.032;2023-08-06T04:18:20;1.02;;;0.30;;
43014;SDS011;28637;50.554;7.032;2023-08-06T04:23:21;0.57;;;0.20;;
43014;SDS011;28637;50.554;7.032;2023-08-06T04:28:21;1.03;;;0.40;;
43014;SDS011;28637;50.554;7.032;2023-08-06T04:33:22;0.73;;;0.27;;
43014;SDS011;28637;50.554;7.032;2023-08-06T04:38:23;0.80;;;0.30;;
43014;SDS011;28637;50.554;7.032;2023-08-06T04:43:27;1.08;;;0.20;;
43014;SDS011;28637;50.554;7.032;2023-08-06T04:48:28;0.40;;;0.20;;
43014;SDS011;28637;50.554;7.032;2023-08-06T04:53:28;0.73;;;0.27;;
43014;SDS011;28637;50.554;7.032;2023-08-06T04:58:29;0.77;;;0.30;;
43014;SDS011;28637;50.554;7.032;2023-08-06T05:03:30;0.23;;;0.20;;
43014;SDS011;28637;50.554;7.032;2023-08-06T05:08:31;0.20;;;0.20;;
43014;SDS011;28637;50.554;7.032;2023-08-06T05:13:32;0.63;;;0.20;;
43014;SDS011;28637;50.554;7.032;2023-08-06T05:18:32;0.63;;;0.20;;
43014;SDS011;28637;50.554;7.032;2023-08-06T05:23:34;0.22;;;0.20;;
43014;SDS011;28637;50.554;7.032;2023-08-06T05:28:35;1.30;;;0.20;;
43014;SDS011;28637;50.554;7.032;2023-08-06T05:33:35;1.93;;;0.30;;
43014;SDS011;28637;50.554;7.032;2023-08-06T05:38:36;4.60;;;0.30;;
43014;SDS011;28637;50.554;7.032;2023-08-06T05:43:37;1.93;;;0.40;;
43014;SDS011;28637;50.554;7.032;2023-08-06T05:48:37;1.93;;;0.33;;
43014;SDS011;28637;50.554;7.032;2023-08-06T05:53:38;2.17;;;0.27;;
43014;SDS011;28637;50.554;7.032;2023-08-06T05:58:39;1.17;;;0.20;;
43014;SDS011;28637;50.554;7.032;2023-08-06T06:03:39;1.30;;;0.30;;
43014;SDS011;28637;50.554;7.032;2023-08-06T06:08:40;0.90;;;0.80;;
43014;SDS011;28637;50.554;7.032;2023-08-06T06:13:41;0.63;;;0.40;;
43014;SDS011;28637;50.554;7.032;2023-08-06T06:18:42;0.40;;;0.40;;
43014;SDS011;28637;50.554;7.032;2023-08-06T06:23:43;0.30;;;0.30;;
43014;SDS011;28637;50.554;7.032;2023-08-06T06:28:44;0.37;;;0.30;;
43014;SDS011;28637;50.554;7.032;2023-08-06T06:33:44;1.30;;;0.40;;
43014;SDS011;28637;50.554;7.032;2023-08-06T06:38:45;0.47;;;0.30;;
43014;SDS011;28637;50.554;7.032;2023-08-06T06:43:46;4.47;;;0.50;;
43014;SDS011;28637;50.554;7.032;2023-08-06T06:48:46;0.47;;;0.40;;
43014;SDS011;28637;50.554;7.032;2023-08-06T06:53:47;1.33;;;0.50;;
43014;SDS011;28637;50.554;7.032;2023-08-06T06:58:48;0.60;;;0.40;;
43014;SDS011;28637;50.554;7.032;2023-08-06T07:03:48;0.50;;;0.40;;
43014;SDS011;28637;50.554;7.032;2023-08-06T07:08:49;0.50;;;0.50;;
43014;SDS011;28637;50.554;7.032;2023-08-06T07:13:49;1.10;;;0.60;;
43014;SDS011;28637;50.554;7.032;2023-08-06T07:18:56;1.40;;;0.60;;
43014;SDS011;28637;50.554;7.032;2023-08-06T07:23:57;1.77;;;0.70;;
43014;SDS011;28637;50.554;7.032;2023-08-06T07:28:59;5.57;;;1.00;;
43014;SDS011;28637;50.554;7.032;2023-08-06T07:34:00;1.20;;;1.10;;
43014;SDS011;28637;50.554;7.032;2023-08-06T07:39:01;1.10;;;1.00;;
43014;SDS011;28637;50.554;7.032;2023-08-06T07:44:01;1.73;;;1.00;;
43014;SDS011;28637;50.554;7.032;2023-08-06T07:49:02;0.80;;;0.80;;
43014;SDS011;28637;50.554;7.032;2023-08-06T07:54:03;2.30;;;1.37;;
43014;SDS011;28637;50.554;7.032;2023-08-06T07:59:04;2.17;;;1.30;;
43014;SDS011;28637;50.554;7.032;2023-08-06T08:04:04;0.97;;;0.93;;
43014;SDS011;28637;50.554;7.032;2023-08-06T08:09:05;1.77;;;0.90;;
43014;SDS011;28637;50.554;7.032;2023-08-06T08:14:06;1.10;;;1.00;;
43014;SDS011;28637;50.554;7.032;2023-08-06T08:19:07;2.60;;;1.03;;
43014;SDS011;28637;50.554;7.032;2023-08-06T08:24:07;1.00;;;0.90;;
43014;SDS011;28637;50.554;7.032;2023-08-06T08:29:08;0.73;;;0.73;;
43014;SDS011;28637;50.554;7.032;2023-08-06T08:34:09;3.10;;;1.07;;
43014;SDS011;28637;50.554;7.032;2023-08-06T08:39:09;1.07;;;1.00;;
43014;SDS011;28637;50.554;7.032;2023-08-06T08:44:10;1.10;;;1.00;;
43014;SDS011;28637;50.554;7.032;2023-08-06T08:54:13;1.33;;;1.13;;
43014;SDS011;28637;50.554;7.032;2023-08-06T08:59:17;1.65;;;1.30;;
43014;SDS011;28637;50.554;7.032;2023-08-06T09:04:18;1.50;;;1.27;;
43014;SDS011;28637;50.554;7.032;2023-08-06T09:09:26;1.30;;;1.20;;
43014;SDS011;28637;50.554;7.032;2023-08-06T09:14:31;1.53;;;1.20;;
43014;SDS011;28637;50.554;7.032;2023-08-06T09:19:32;1.10;;;1.00;;
43014;SDS011;28637;50.554;7.032;2023-08-06T09:24:33;2.25;;;0.90;;
43014;SDS011;28637;50.554;7.032;2023-08-06T09:29:41;0.40;;;0.40;;
43014;SDS011;28637;50.554;7.032;2023-08-06T09:34:45;0.28;;;0.28;;
43014;SDS011;28637;50.554;7.032;2023-08-06T09:39:46;0.60;;;0.40;;
43014;SDS011;28637;50.554;7.032;2023-08-06T09:44:47;0.67;;;0.20;;
43014;SDS011;28637;50.554;7.032;2023-08-06T09:49:47;2.00;;;0.40;;
43014;SDS011;28637;50.554;7.032;2023-08-06T09:54:48;1.13;;;0.40;;
43014;SDS011;28637;50.554;7.032;2023-08-06T09:59:51;0.30;;;0.30;;
43014;SDS011;28637;50.554;7.032;2023-08-06T10:04:53;1.58;;;0.50;;
43014;SDS011;28637;50.554;7.032;2023-08-06T10:09:58;0.75;;;0.30;;
43014;SDS011;28637;50.554;7.032;2023-08-06T10:14:59;1.05;;;0.60;;
43014;SDS011;28637;50.554;7.032;2023-08-06T10:20:05;1.02;;;0.70;;
43014;SDS011;28637;50.554;7.032;2023-08-06T10:25:07;1.50;;;0.90;;
43014;SDS011;28637;50.554;7.032;2023-08-06T10:40:43;2.33;;;0.90;;
43014;SDS011;28637;50.554;7.032;2023-08-06T10:45:54;1.30;;;0.80;;
43014;SDS011;28637;50.554;7.032;2023-08-06T10:55:56;1.48;;;0.65;;
43014;SDS011;28637;50.554;7.032;2023-08-06T11:00:57;1.98;;;0.77;;
43014;SDS011;28637;50.554;7.032;2023-08-06T11:11:09;2.60;;;0.77;;
43014;SDS011;28637;50.554;7.032;2023-08-06T11:16:20;1.25;;;0.57;;
43014;SDS011;28637;50.554;7.032;2023-08-06T11:21:23;0.68;;;0.52;;
43014;SDS011;28637;50.554;7.032;2023-08-06T11:26:26;0.77;;;0.50;;
43014;SDS011;28637;50.554;7.032;2023-08-06T11:41:34;1.40;;;0.60;;
43014;SDS011;28637;50.554;7.032;2023-08-06T11:47:12;2.15;;;0.65;;
43014;SDS011;28637;50.554;7.032;2023-08-06T11:52:24;1.15;;;0.70;;
43014;SDS011;28637;50.554;7.032;2023-08-06T11:57:25;2.65;;;0.60;;
43014;SDS011;28637;50.554;7.032;2023-08-06T12:02:26;0.73;;;0.63;;
43014;SDS011;28637;50.554;7.032;2023-08-06T12:07:29;2.03;;;0.90;;
43014;SDS011;28637;50.554;7.032;2023-08-06T12:12:36;1.85;;;0.63;;
43014;SDS011;28637;50.554;7.032;2023-08-06T12:17:38;0.57;;;0.57;;
43014;SDS011;28637;50.554;7.032;2023-08-06T12:22:39;0.95;;;0.50;;
43014;SDS011;28637;50.554;7.032;2023-08-06T12:27:41;2.13;;;0.60;;
43014;SDS011;28637;50.554;7.032;2023-08-06T12:32:43;2.80;;;0.60;;
43014;SDS011;28637;50.554;7.032;2023-08-06T12:37:44;1.37;;;0.80;;
43014;SDS011;28637;50.554;7.032;2023-08-06T12:42:45;2.95;;;0.50;;
43014;SDS011;28637;50.554;7.032;2023-08-06T12:47:46;1.73;;;0.50;;
43014;SDS011;28637;50.554;7.032;2023-08-06T12:52:48;0.28;;;0.28;;
43014;SDS011;28637;50.554;7.032;2023-08-06T12:57:49;0.70;;;0.40;;
43014;SDS011;28637;50.554;7.032;2023-08-06T13:02:50;0.27;;;0.23;;
43014;SDS011;28637;50.554;7.032;2023-08-06T13:07:50;0.97;;;0.20;;
43014;SDS011;28637;50.554;7.032;2023-08-06T13:12:51;2.23;;;0.20;;
43014;SDS011;28637;50.554;7.032;2023-08-06T13:17:52;0.77;;;0.30;;
43014;SDS011;28637;50.554;7.032;2023-08-06T13:22:54;0.20;;;0.20;;
43014;SDS011;28637;50.554;7.032;2023-08-06T13:27:55;0.70;;;0.43;;
43014;SDS011;28637;50.554;7.032;2023-08-06T13:32:56;1.63;;;0.70;;
43014;SDS011;28637;50.554;7.032;2023-08-06T13:37:57;2.47;;;0.60;;
43014;SDS011;28637;50.554;7.032;2023-08-06T13:42:57;0.87;;;0.63;;
43014;SDS011;28637;50.554;7.032;2023-08-06T13:47:58;1.00;;;0.80;;
43014;SDS011;28637;50.554;7.032;2023-08-06T13:52:59;0.93;;;0.87;;
43014;SDS011;28637;50.554;7.032;2023-08-06T13:58:00;1.75;;;0.90;;
43014;SDS011;28637;50.554;7.032;2023-08-06T14:03:01;2.20;;;0.87;;
43014;SDS011;28637;50.554;7.032;2023-08-06T14:08:02;1.23;;;0.87;;
43014;SDS011;28637;50.554;7.032;2023-08-06T14:13:03;2.60;;;0.73;;
43014;SDS011;28637;50.554;7.032;2023-08-06T14:18:03;2.23;;;0.70;;
43014;SDS011;28637;50.554;7.032;2023-08-06T14:23:04;1.33;;;0.47;;
43014;SDS011;28637;50.554;7.032;2023-08-06T14:28:05;0.50;;;0.40;;
43014;SDS011;28637;50.554;7.032;2023-08-06T14:33:06;1.02;;;0.43;;
43014;SDS011;28637;50.554;7.032;2023-08-06T14:38:07;1.70;;;0.40;;
43014;SDS011;28637;50.554;7.032;2023-08-06T14:43:07;0.90;;;0.30;;
43014;SDS011;28637;50.554;7.032;2023-08-06T14:53:09;0.57;;;0.30;;
43014;SDS011;28637;50.554;7.032;2023-08-06T14:58:11;1.35;;;0.20;;
43014;SDS011;28637;50.554;7.032;2023-08-06T15:03:12;0.27;;;0.20;;
43014;SDS011;28637;50.554;7.032;2023-08-06T15:08:13;1.00;;;0.40;;
43014;SDS011;28637;50.554;7.032;2023-08-06T15:13:14;0.20;;;0.20;;
43014;SDS011;28637;50.554;7.032;2023-08-06T15:18:15;0.87;;;0.30;;
43014;SDS011;28637;50.554;7.032;2023-08-06T15:23:16;1.77;;;0.40;;
43014;SDS011;28637;50.554;7.032;2023-08-06T15:33:18;0.90;;;0.40;;
43014;SDS011;28637;50.554;7.032;2023-08-06T15:38:19;0.83;;;0.30;;
43014;SDS011;28637;50.554;7.032;2023-08-06T15:43:19;0.67;;;0.10;;
43014;SDS011;28637;50.554;7.032;2023-08-06T15:48:20;1.30;;;0.20;;
43014;SDS011;28637;50.554;7.032;2023-08-06T15:53:21;0.80;;;0.30;;
43014;SDS011;28637;50.554;7.032;2023-08-06T15:58:21;0.77;;;0.20;;
43014;SDS011;28637;50.554;7.032;2023-08-06T16:03:22;0.70;;;0.23;;
43014;SDS011;28637;50.554;7.032;2023-08-06T16:08:23;0.40;;;0.20;;
43014;SDS011;28637;50.554;7.032;2023-08-06T16:13:24;0.50;;;0.30;;
43014;SDS011;28637;50.554;7.032;2023-08-06T16:18:24;0.50;;;0.30;;
43014;SDS011;28637;50.554;7.032;2023-08-06T16:23:25;3.43;;;0.30;;
43014;SDS011;28637;50.554;7.032;2023-08-06T16:28:25;1.77;;;0.30;;
43014;SDS011;28637;50.554;7.032;2023-08-06T16:33:28;0.50;;;0.28;;
43014;SDS011;28637;50.554;7.032;2023-08-06T16:38:29;0.33;;;0.33;;
43014;SDS011;28637;50.554;7.032;2023-08-06T16:43:30;1.03;;;0.60;;
43014;SDS011;28637;50.554;7.032;2023-08-06T16:48:30;0.50;;;0.50;;
43014;SDS011;28637;50.554;7.032;2023-08-06T16:53:33;1.13;;;0.63;;
43014;SDS011;28637;50.554;7.032;2023-08-06T16:58:34;2.60;;;0.63;;
43014;SDS011;28637;50.554;7.032;2023-08-06T17:03:35;1.37;;;0.67;;
43014;SDS011;28637;50.554;7.032;2023-08-06T17:08:36;1.37;;;0.60;;
43014;SDS011;28637;50.554;7.032;2023-08-06T17:13:38;1.58;;;0.60;;
43014;SDS011;28637;50.554;7.032;2023-08-06T17:18:39;1.77;;;0.47;;
43014;SDS011;28637;50.554;7.032;2023-08-06T17:23:40;1.37;;;0.60;;
43014;SDS011;28637;50.554;7.032;2023-08-06T17:28:44;2.13;;;0.63;;
43014;SDS011;28637;50.554;7.032;2023-08-06T17:33:45;1.43;;;0.77;;
43014;SDS011;28637;50.554;7.032;2023-08-06T17:38:45;0.73;;;0.60;;
43014;SDS011;28637;50.554;7.032;2023-08-06T17:43:46;2.77;;;0.80;;
43014;SDS011;28637;50.554;7.032;2023-08-06T17:48:47;1.37;;;0.80;;
43014;SDS011;28637;50.554;7.032;2023-08-06T17:53:48;2.07;;;0.90;;
43014;SDS011;28637;50.554;7.032;2023-08-06T17:58:48;1.53;;;0.70;;
43014;SDS011;28637;50.554;7.032;2023-08-06T18:03:49;1.00;;;0.60;;
43014;SDS011;28637;50.554;7.032;2023-08-06T18:08:50;0.60;;;0.60;;
43014;SDS011;28637;50.554;7.032;2023-08-06T18:13:50;1.00;;;0.73;;
43014;SDS011;28637;50.554;7.032;2023-08-06T18:18:51;1.97;;;0.80;;
43014;SDS011;28637;50.554;7.032;2023-08-06T18:23:53;0.90;;;0.57;;
43014;SDS011;28637;50.554;7.032;2023-08-06T18:28:54;0.80;;;0.50;;
43014;SDS011;28637;50.554;7.032;2023-08-06T18:33:55;1.07;;;0.50;;
43014;SDS011;28637;50.554;7.032;2023-08-06T18:38:55;1.03;;;0.40;;
43014;SDS011;28637;50.554;7.032;2023-08-06T18:43:56;3.23;;;0.40;;
43014;SDS011;28637;50.554;7.032;2023-08-06T18:48:57;0.40;;;0.33;;
43014;SDS011;28637;50.554;7.032;2023-08-06T18:53:57;0.50;;;0.23;;
43014;SDS011;28637;50.554;7.032;2023-08-06T18:58:58;0.13;;;0.10;;
43014;SDS011;28637;50.554;7.032;2023-08-06T19:03:58;0.67;;;0.30;;
43014;SDS011;28637;50.554;7.032;2023-08-06T19:08:59;0.57;;;0.27;;
43014;SDS011;28637;50.554;7.032;2023-08-06T19:14:00;0.37;;;0.33;;
43014;SDS011;28637;50.554;7.032;2023-08-06T19:19:01;0.90;;;0.50;;
43014;SDS011;28637;50.554;7.032;2023-08-06T19:24:02;1.87;;;0.57;;
43014;SDS011;28637;50.554;7.032;2023-08-06T19:29:03;4.00;;;0.77;;
43014;SDS011;28637;50.554;7.032;2023-08-06T19:34:04;2.77;;;1.03;;
43014;SDS011;28637;50.554;7.032;2023-08-06T19:39:05;2.87;;;1.10;;
43014;SDS011;28637;50.554;7.032;2023-08-06T19:44:05;3.63;;;1.00;;
43014;SDS011;28637;50.554;7.032;2023-08-06T19:49:06;3.70;;;1.23;;
43014;SDS011;28637;50.554;7.032;2023-08-06T19:54:07;4.73;;;1.20;;
43014;SDS011;28637;50.554;7.032;2023-08-06T19:59:07;2.03;;;0.80;;
43014;SDS011;28637;50.554;7.032;2023-08-06T20:04:08;2.47;;;1.03;;
43014;SDS011;28637;50.554;7.032;2023-08-06T20:09:09;1.03;;;0.80;;
43014;SDS011;28637;50.554;7.032;2023-08-06T20:14:09;1.83;;;1.00;;
43014;SDS011;28637;50.554;7.032;2023-08-06T20:19:10;3.80;;;1.00;;
43014;SDS011;28637;50.554;7.032;2023-08-06T20:24:11;2.93;;;0.90;;
43014;SDS011;28637;50.554;7.032;2023-08-06T20:29:11;2.20;;;1.03;;
43014;SDS011;28637;50.554;7.032;2023-08-06T20:34:12;3.67;;;1.33;;
43014;SDS011;28637;50.554;7.032;2023-08-06T20:39:12;2.40;;;1.00;;
43014;SDS011;28637;50.554;7.032;2023-08-06T20:44:13;3.23;;;1.30;;
43014;SDS011;28637;50.554;7.032;2023-08-06T20:49:14;3.70;;;1.20;;
43014;SDS011;28637;50.554;7.032;2023-08-06T20:54:14;2.97;;;1.43;;
43014;SDS011;28637;50.554;7.032;2023-08-06T20:59:15;3.67;;;1.33;;
43014;SDS011;28637;50.554;7.032;2023-08-06T21:04:16;3.40;;;1.50;;
43014;SDS011;28637;50.554;7.032;2023-08-06T21:09:16;2.73;;;1.40;;
43014;SDS011;28637;50.554;7.032;2023-08-06T21:14:17;5.50;;;2.47;;
43014;SDS011;28637;50.554;7.032;2023-08-06T21:19:17;4.43;;;1.40;;
43014;SDS011;28637;50.554;7.032;2023-08-06T21:24:18;4.30;;;1.40;;
43014;SDS011;28637;50.554;7.032;2023-08-06T21:29:19;5.37;;;1.33;;
43014;SDS011;28637;50.554;7.032;2023-08-06T21:34:20;4.53;;;1.30;;
43014;SDS011;28637;50.554;7.032;2023-08-06T21:39:21;4.43;;;1.40;;
43014;SDS011;28637;50.554;7.032;2023-08-06T21:44:22;3.80;;;1.00;;
43014;SDS011;28637;50.554;7.032;2023-08-06T21:49:22;3.17;;;1.00;;
43014;SDS011;28637;50.554;7.032;2023-08-06T21:54:24;4.37;;;1.07;;
43014;SDS011;28637;50.554;7.032;2023-08-06T21:59:24;1.20;;;0.67;;
43014;SDS011;28637;50.554;7.032;2023-08-06T22:04:25;3.17;;;0.90;;
43014;SDS011;28637;50.554;7.032;2023-08-06T22:09:26;4.90;;;1.40;;
43014;SDS011;28637;50.554;7.032;2023-08-06T22:14:27;4.50;;;1.00;;
43014;SDS011;28637;50.554;7.032;2023-08-06T22:19:28;5.33;;;1.37;;
43014;SDS011;28637;50.554;7.032;2023-08-06T22:24:28;5.17;;;1.27;;
43014;SDS011;28637;50.554;7.032;2023-08-06T22:29:29;7.30;;;1.60;;
43014;SDS011;28637;50.554;7.032;2023-08-06T22:34:30;8.77;;;1.47;;
43014;SDS011;28637;50.554;7.032;2023-08-06T22:39:31;6.63;;;1.63;;
43014;SDS011;28637;50.554;7.032;2023-08-06T22:44:32;5.10;;;1.63;;
43014;SDS011;28637;50.554;7.032;2023-08-06T22:49:33;5.97;;;1.60;;
43014;SDS011;28637;50.554;7.032;2023-08-06T22:54:34;7.28;;;1.75;;
43014;SDS011;28637;50.554;7.032;2023-08-06T22:59:34;3.90;;;1.30;;
43014;SDS011;28637;50.554;7.032;2023-08-06T23:04:35;5.10;;;1.40;;
43014;SDS011;28637;50.554;7.032;2023-08-06T23:09:36;5.70;;;1.63;;
43014;SDS011;28637;50.554;7.032;2023-08-06T23:14:37;6.20;;;1.60;;
43014;SDS011;28637;50.554;7.032;2023-08-06T23:19:38;8.20;;;2.07;;
43014;SDS011;28637;50.554;7.032;2023-08-06T23:24:38;8.30;;;1.87;;
43014;SDS011;28637;50.554;7.032;2023-08-06T23:29:39;8.23;;;2.17;;
43014;SDS011;28637;50.554;7.032;2023-08-06T23:34:40;7.57;;;1.73;;
43014;SDS011;28637;50.554;7.032;2023-08-06T23:39:40;6.27;;;2.10;;
43014;SDS011;28637;50.554;7.032;2023-08-06T23:44:41;5.50;;;1.90;;
43014;SDS011;28637;50.554;7.032;2023-08-06T23:49:42;8.87;;;2.47;;
43014;SDS011;28637;50.554;7.032;2023-08-06T23:54:43;4.83;;;1.87;;
43014;SDS011;28637;50.554;7.032;2023-08-06T23:59:44;10.53;;;2.53;;
